Time;durP1;ratioP1;P1;durP2;ratioP2;P2;SDS_P1;SDS_P2;PMS_P1;PMS_P2;Temp;Humidity;BMP_temperature;BMP_pressure;BME280_temperature;BME280_humidity;BME280_pressure;Samples;Min_cycle;Max_cycle;Signal;HPM_P1;HPM_P2
2022/11/21 00:00:22;;;;;;;3.43;0.60;;;;;;;14.20;100.00;94164.78;5116448;28;20515;-52
2022/11/21 00:02:50;;;;;;;0.70;0.70;;;;;;;14.54;100.00;94144.16;5115837;28;20442;-52
2022/11/21 00:05:19;;;;;;;0.40;0.30;;;;;;;14.58;100.00;94136.28;5116391;28;20899;-53
2022/11/21 00:07:48;;;;;;;0.40;0.30;;;;;;;14.61;100.00;94151.63;5116108;28;20421;-53
2022/11/21 00:10:17;;;;;;;0.40;0.30;;;;;;;14.54;100.00;94122.03;5116057;28;20436;-53
2022/11/21 00:12:46;;;;;;;1.07;0.57;;;;;;;14.50;100.00;94135.22;5116131;28;20482;-53
2022/11/21 00:15:15;;;;;;;0.40;0.40;;;;;;;14.51;100.00;94144.00;5116174;28;20517;-53
2022/11/21 00:17:43;;;;;;;1.87;0.80;;;;;;;14.76;100.00;94143.06;5116150;28;20430;-53
2022/11/21 00:20:12;;;;;;;0.53;0.53;;;;;;;14.90;100.00;94106.25;5116030;28;20430;-53
2022/11/21 00:22:40;;;;;;;6.30;0.73;;;;;;;14.70;100.00;94088.34;5115851;28;20433;-54
2022/11/21 00:25:09;;;;;;;0.73;0.70;;;;;;;15.27;100.00;94174.75;5115839;28;20436;-53
2022/11/21 00:27:38;;;;;;;0.60;0.50;;;;;;;15.50;100.00;94214.50;5115776;28;20511;-53
2022/11/21 00:30:09;;;;;;;0.30;0.20;;;;;;;15.14;100.00;94202.47;5115796;28;20430;-54
2022/11/21 00:32:38;;;;;;;0.40;0.30;;;;;;;14.24;100.00;94139.09;5115595;28;20474;-54
2022/11/21 00:35:07;;;;;;;0.40;0.20;;;;;;;13.76;100.00;94121.53;5115555;28;20423;-54
2022/11/21 00:37:35;;;;;;;0.30;0.20;;;;;;;14.11;100.00;94172.84;5115609;28;20419;-53
2022/11/21 00:40:04;;;;;;;0.40;0.20;;;;;;;14.41;100.00;94195.00;5115758;28;20431;-53
2022/11/21 00:42:32;;;;;;;0.40;0.20;;;;;;;14.54;100.00;94191.34;5115858;28;20937;-53
2022/11/21 00:45:01;;;;;;;0.40;0.30;;;;;;;14.45;100.00;94177.25;5115720;27;20890;-53
2022/11/21 00:47:30;;;;;;;0.30;0.20;;;;;;;14.54;100.00;94183.34;5115461;28;20513;-53
2022/11/21 00:49:59;;;;;;;0.40;0.30;;;;;;;14.36;100.00;94203.97;5115115;28;20428;-54
2022/11/21 00:52:27;;;;;;;0.50;0.47;;;;;;;14.24;100.00;94205.72;5115256;28;21004;-54
2022/11/21 00:54:55;;;;;;;1.33;1.13;;;;;;;14.21;100.00;94209.78;5115176;28;20438;-53
2022/11/21 00:57:23;;;;;;;0.30;0.20;;;;;;;14.09;100.00;94208.88;5115197;28;21111;-53
2022/11/21 00:59:52;;;;;;;1.17;0.60;;;;;;;13.94;100.00;94213.59;5115064;28;20505;-53
2022/11/21 01:02:20;;;;;;;0.47;0.30;;;;;;;13.92;100.00;94194.50;5115038;28;20430;-53
2022/11/21 01:04:50;;;;;;;0.40;0.30;;;;;;;14.10;100.00;94197.91;5114950;28;20417;-53
2022/11/21 01:07:18;;;;;;;0.40;0.20;;;;;;;14.12;100.00;94198.34;5114549;28;20441;-53
2022/11/21 01:09:47;;;;;;;2.70;0.50;;;;;;;13.94;100.00;94192.28;5114896;28;20935;-53
2022/11/21 01:12:15;;;;;;;0.40;0.30;;;;;;;14.29;100.00;94165.56;5115065;28;20477;-53
2022/11/21 01:14:43;;;;;;;0.40;0.20;;;;;;;14.55;97.33;94172.34;5113807;28;20421;-53
2022/11/21 01:17:11;;;;;;;0.40;0.30;;;;;;;14.76;96.67;94188.41;5115290;28;20438;-53
2022/11/21 01:19:40;;;;;;;0.70;0.70;;;;;;;14.67;100.00;94187.69;5114840;27;20423;-53
2022/11/21 01:22:09;;;;;;;0.30;0.20;;;;;;;14.84;92.83;94187.59;5114992;28;20425;-53
2022/11/21 01:24:38;;;;;;;1.67;0.33;;;;;;;14.69;97.69;94190.03;5114915;28;20431;-53
2022/11/21 01:27:06;;;;;;;0.40;0.40;;;;;;;14.85;100.00;94194.47;5113857;28;20477;-54
2022/11/21 01:29:34;;;;;;;9.00;1.03;;;;;;;14.99;100.00;94176.34;5114394;28;20446;-53
2022/11/21 01:32:03;;;;;;;2.50;2.30;;;;;;;14.78;99.14;94170.19;5114538;27;20478;-53
2022/11/21 01:34:31;;;;;;;9.03;0.30;;;;;;;14.90;88.55;94159.59;5114310;28;20437;-53
2022/11/21 01:37:00;;;;;;;0.40;0.30;;;;;;;15.09;83.21;94161.84;5114492;28;20445;-54
2022/11/21 01:39:29;;;;;;;0.40;0.20;;;;;;;15.20;83.77;94152.34;5113467;28;20430;-54
2022/11/21 01:41:57;;;;;;;5.13;0.30;;;;;;;15.19;82.69;94162.25;5114178;28;20440;-53
2022/11/21 01:44:27;;;;;;;0.60;0.60;;;;;;;15.23;83.51;94138.34;5114140;28;20514;-53
2022/11/21 01:46:56;;;;;;;0.50;0.50;;;;;;;15.22;78.93;94126.91;5114034;28;20434;-54
2022/11/21 01:49:27;;;;;;;0.30;0.20;;;;;;;15.02;83.69;94133.03;5114274;28;20510;-54
2022/11/21 01:52:02;;;;;;;0.40;0.20;;;;;;;15.07;86.99;94140.84;5114216;28;20423;-54
2022/11/21 01:54:37;;;;;;;1.70;1.17;;;;;;;14.99;85.17;94117.66;5114010;28;20426;-54
2022/11/21 01:57:10;;;;;;;0.40;0.30;;;;;;;14.97;84.70;94117.22;5113771;28;20433;-54
2022/11/21 01:59:44;;;;;;;0.30;0.20;;;;;;;15.03;80.06;94115.88;5113750;28;20437;-54
2022/11/21 02:02:15;;;;;;;0.30;0.30;;;;;;;15.14;79.36;94125.06;5113769;28;20913;-54
2022/11/21 02:04:44;;;;;;;0.70;0.43;;;;;;;15.23;78.97;94120.44;5113714;28;20438;-54
2022/11/21 02:07:14;;;;;;;0.30;0.20;;;;;;;15.15;81.56;94136.53;5113698;28;20419;-54
2022/11/21 02:09:49;;;;;;;0.50;0.30;;;;;;;15.08;82.54;94128.25;5113859;28;20435;-54
2022/11/21 02:12:25;;;;;;;3.60;0.40;;;;;;;15.09;84.76;94140.50;5113844;28;20464;-54
2022/11/21 02:14:55;;;;;;;0.30;0.20;;;;;;;15.00;83.69;94137.88;5113458;28;20437;-54
2022/11/21 02:17:23;;;;;;;0.40;0.33;;;;;;;14.91;86.25;94149.72;5113650;28;20427;-54
2022/11/21 02:19:55;;;;;;;0.33;0.20;;;;;;;14.92;85.29;94170.75;5113372;28;20431;-53
2022/11/21 02:22:32;;;;;;;0.40;0.30;;;;;;;14.36;87.37;94091.25;5113411;28;20418;-54
2022/11/21 02:25:05;;;;;;;0.30;0.30;;;;;;;14.89;85.67;94175.94;5113234;28;20426;-54
2022/11/21 02:27:34;;;;;;;0.60;0.60;;;;;;;14.93;85.50;94164.31;5112242;28;20474;-54
2022/11/21 02:30:06;;;;;;;0.40;0.30;;;;;;;15.03;86.21;94173.81;5113135;28;20434;-54
2022/11/21 02:32:37;;;;;;;2.60;2.50;;;;;;;14.87;88.66;94160.28;5113004;28;20499;-54
2022/11/21 02:35:06;;;;;;;0.40;0.40;;;;;;;14.78;88.69;94164.06;5113086;28;20447;-53
2022/11/21 02:37:36;;;;;;;0.30;0.20;;;;;;;14.84;90.46;94160.13;5113301;28;20437;-53
2022/11/21 02:40:10;;;;;;;0.40;0.27;;;;;;;14.57;91.09;94146.16;5113004;28;20424;-53
2022/11/21 02:42:44;;;;;;;0.37;0.27;;;;;;;14.94;88.05;94155.19;5113289;28;20425;-53
2022/11/21 02:45:25;;;;;;;0.40;0.30;;;;;;;14.91;86.33;94158.50;5112029;28;20426;-53
2022/11/21 02:47:55;;;;;;;0.50;0.30;;;;;;;14.78;87.41;94156.88;5113192;28;20422;-52
2022/11/21 02:50:32;;;;;;;0.40;0.20;;;;;;;14.64;86.17;94151.00;5113305;28;20860;-53
2022/11/21 02:53:01;;;;;;;0.70;0.50;;;;;;;14.59;84.58;94132.50;5113185;28;20470;-53
2022/11/21 02:55:31;;;;;;;0.30;0.20;;;;;;;14.72;83.26;94139.50;5112742;28;20510;-52
2022/11/21 02:57:59;;;;;;;4.23;0.33;;;;;;;14.74;82.92;94133.84;5112352;28;20469;-52
2022/11/21 03:00:33;;;;;;;0.30;0.30;;;;;;;14.81;82.00;94132.22;5112750;28;20440;-53
2022/11/21 03:03:01;;;;;;;3.90;0.50;;;;;;;14.62;82.88;94137.97;5113044;28;20457;-54
2022/11/21 03:05:30;;;;;;;3.80;0.30;;;;;;;14.81;80.79;94128.75;5112870;28;20462;-53
2022/11/21 03:07:58;;;;;;;0.40;0.30;;;;;;;14.83;81.46;94116.66;5112789;28;20446;-53
2022/11/21 03:10:27;;;;;;;0.40;0.30;;;;;;;14.75;78.44;94132.75;5112990;28;20807;-53
2022/11/21 03:13:00;;;;;;;0.50;0.40;;;;;;;14.93;77.37;94131.50;5112373;28;20467;-53
2022/11/21 03:15:30;;;;;;;0.40;0.30;;;;;;;15.05;78.67;94118.25;5111719;28;20433;-53
2022/11/21 03:18:00;;;;;;;0.73;0.67;;;;;;;14.90;76.47;94124.94;5112501;28;20439;-52
2022/11/21 03:20:28;;;;;;;0.67;0.63;;;;;;;14.82;75.06;94127.66;5112513;28;20521;-52
2022/11/21 03:22:56;;;;;;;1.47;1.47;;;;;;;15.00;75.13;94124.53;5112862;28;20429;-53
2022/11/21 03:25:25;;;;;;;1.37;0.40;;;;;;;14.93;75.23;94134.94;5112575;28;20414;-52
2022/11/21 03:27:54;;;;;;;0.70;0.40;;;;;;;14.39;73.60;94080.72;5112316;28;20480;-52
2022/11/21 03:30:25;;;;;;;0.83;0.83;;;;;;;14.90;73.00;94150.84;5111984;28;20446;-52
2022/11/21 03:32:55;;;;;;;0.70;0.70;;;;;;;15.00;74.18;94153.13;5112143;28;20435;-52
2022/11/21 03:35:24;;;;;;;0.30;0.20;;;;;;;15.03;73.57;94147.91;5112686;28;20936;-52
2022/11/21 03:37:52;;;;;;;0.50;0.40;;;;;;;15.20;72.60;94158.44;5112095;28;20454;-52
2022/11/21 03:40:20;;;;;;;0.40;0.30;;;;;;;14.87;71.99;94164.81;5112573;28;20426;-52
2022/11/21 03:42:48;;;;;;;0.40;0.30;;;;;;;14.82;71.80;94163.13;5112182;28;20430;-52
2022/11/21 03:45:17;;;;;;;0.40;0.40;;;;;;;15.10;72.03;94158.09;5112432;28;20756;-52
2022/11/21 03:47:46;;;;;;;3.70;0.60;;;;;;;15.23;73.18;94152.47;5112124;28;20433;-52
2022/11/21 03:50:17;;;;;;;0.40;0.30;;;;;;;14.90;71.41;94153.50;5112067;28;20786;-53
2022/11/21 03:52:46;;;;;;;0.40;0.20;;;;;;;14.84;71.09;94158.25;5112092;28;20429;-52
2022/11/21 03:55:14;;;;;;;0.30;0.20;;;;;;;14.90;70.66;94156.94;5112404;28;20538;-52
2022/11/21 03:57:42;;;;;;;0.40;0.30;;;;;;;14.59;75.05;94180.50;5112587;28;20791;-52
2022/11/21 04:00:12;;;;;;;0.50;0.40;;;;;;;14.61;76.96;94168.41;5112045;28;20431;-52
2022/11/21 04:02:40;;;;;;;0.50;0.40;;;;;;;14.33;78.12;94183.28;5112197;28;20513;-52
2022/11/21 04:05:10;;;;;;;8.97;2.77;;;;;;;14.31;78.83;94179.38;5112366;28;20459;-52
2022/11/21 04:07:38;;;;;;;0.30;0.30;;;;;;;14.09;80.92;94185.66;5112092;28;20431;-52
2022/11/21 04:10:07;;;;;;;0.40;0.30;;;;;;;14.36;82.65;94164.00;5112075;28;20431;-52
2022/11/21 04:12:35;;;;;;;6.53;0.30;;;;;;;14.53;80.58;94171.13;5111912;28;20439;-52
2022/11/21 04:15:04;;;;;;;0.40;0.20;;;;;;;14.20;79.92;94175.44;5111954;28;20994;-52
2022/11/21 04:17:40;;;;;;;0.40;0.27;;;;;;;14.08;79.61;94156.69;5111903;28;20898;-52
2022/11/21 04:20:11;;;;;;;0.30;0.20;;;;;;;14.37;80.19;94167.44;5111535;28;20976;-52
2022/11/21 04:22:39;;;;;;;0.40;0.30;;;;;;;14.43;78.16;94152.81;5111745;28;20442;-52
2022/11/21 04:25:08;;;;;;;0.30;0.20;;;;;;;14.39;77.17;94159.91;5111780;28;20914;-52
2022/11/21 04:27:36;;;;;;;0.40;0.30;;;;;;;14.48;78.15;94168.63;5111873;28;20888;-52
2022/11/21 04:30:06;;;;;;;0.30;0.30;;;;;;;14.54;76.61;94167.34;5111978;28;20528;-52
2022/11/21 04:32:34;;;;;;;1.00;1.00;;;;;;;14.47;73.96;94175.84;5111261;28;20430;-51
2022/11/21 04:35:04;;;;;;;0.30;0.20;;;;;;;14.51;73.97;94174.13;5111839;28;20482;-52
2022/11/21 04:37:34;;;;;;;0.30;0.20;;;;;;;14.60;73.75;94171.38;5111915;28;20452;-53
2022/11/21 04:40:02;;;;;;;0.40;0.30;;;;;;;14.53;72.25;94173.78;5111857;28;20516;-52
2022/11/21 04:42:30;;;;;;;0.30;0.30;;;;;;;14.66;72.20;94162.13;5115277;28;20426;-52
2022/11/21 04:44:59;;;;;;;3.07;0.47;;;;;;;14.79;73.04;94182.44;5115556;28;20438;-52
2022/11/21 04:47:27;;;;;;;0.37;0.20;;;;;;;14.83;73.18;94172.69;5115381;28;20433;-52
2022/11/21 04:49:55;;;;;;;0.37;0.30;;;;;;;14.63;76.03;94170.75;5115447;28;20438;-52
2022/11/21 04:52:23;;;;;;;2.00;0.40;;;;;;;14.69;77.48;94182.03;5115359;28;20890;-52
2022/11/21 04:54:53;;;;;;;0.40;0.23;;;;;;;14.46;77.62;94157.50;5115055;28;20512;-52
2022/11/21 04:57:21;;;;;;;1.73;0.30;;;;;;;14.46;79.55;94176.19;5115182;28;20422;-52
2022/11/21 04:59:50;;;;;;;0.40;0.30;;;;;;;14.07;81.41;94187.09;5114671;28;20430;-52
2022/11/21 05:02:18;;;;;;;0.63;0.50;;;;;;;14.17;81.97;94184.06;5115010;28;20931;-52
2022/11/21 05:04:46;;;;;;;0.40;0.20;;;;;;;14.19;81.74;94192.56;5115179;28;20521;-52
2022/11/21 05:07:15;;;;;;;8.60;1.27;;;;;;;13.91;80.23;94179.59;5115089;27;20470;-52
2022/11/21 05:09:44;;;;;;;0.40;0.20;;;;;;;14.20;78.13;94207.44;5115254;28;20429;-53
2022/11/21 05:14:59;;;;;;;0.40;0.20;;;;;;;14.41;79.42;94227.00;5114831;28;20467;-52
2022/11/21 05:17:28;;;;;;;0.40;0.30;;;;;;;14.47;79.10;94234.50;5115186;28;20500;-52
2022/11/21 05:19:56;;;;;;;0.83;0.50;;;;;;;14.51;80.33;94245.31;5114217;28;20461;-54
2022/11/21 05:22:25;;;;;;;0.40;0.27;;;;;;;14.42;81.91;94245.31;5114711;27;20434;-52
2022/11/21 05:24:53;;;;;;;0.40;0.30;;;;;;;14.20;83.95;94242.88;5114251;28;20451;-52
2022/11/21 05:27:23;;;;;;;6.83;0.97;;;;;;;14.23;86.78;94239.56;5114526;28;20483;-53
2022/11/21 05:29:52;;;;;;;0.40;0.30;;;;;;;14.21;82.42;94243.66;5114769;28;20438;-53
2022/11/21 05:32:20;;;;;;;1.33;0.80;;;;;;;14.31;83.65;94259.34;5114540;28;20430;-53
2022/11/21 05:34:48;;;;;;;0.53;0.50;;;;;;;14.27;85.88;94253.81;5114003;28;20477;-52
2022/11/21 05:37:17;;;;;;;0.70;0.60;;;;;;;14.23;91.85;94254.78;5114379;28;20430;-52
2022/11/21 05:39:45;;;;;;;5.60;1.20;;;;;;;13.83;99.57;94207.06;5113976;28;20942;-52
2022/11/21 05:42:13;;;;;;;0.80;0.80;;;;;;;14.10;98.14;94235.19;5114598;28;20432;-52
2022/11/21 05:44:42;;;;;;;0.50;0.50;;;;;;;13.70;100.00;94247.16;5114482;27;20893;-52
2022/11/21 05:47:10;;;;;;;0.80;0.70;;;;;;;13.31;100.00;94250.75;5114225;27;20435;-52
2022/11/21 05:49:38;;;;;;;16.33;1.73;;;;;;;13.29;100.00;94248.41;5114203;28;20516;-52
2022/11/21 05:52:06;;;;;;;0.57;0.57;;;;;;;13.61;100.00;94252.47;5113806;28;20458;-52
2022/11/21 05:54:35;;;;;;;2.40;2.20;;;;;;;13.51;100.00;94255.44;5114076;28;20456;-52
2022/11/21 05:57:03;;;;;;;2.23;1.27;;;;;;;13.74;100.00;94256.88;5114166;28;20434;-52
2022/11/21 05:59:31;;;;;;;0.47;0.40;;;;;;;14.05;100.00;94251.34;5113685;27;20463;-52
2022/11/21 06:04:43;;;;;;;2.93;0.90;;;;;;;13.00;100.00;94213.59;5079899;28;20442;-52
2022/11/21 06:07:11;;;;;;;0.70;0.70;;;;;;;13.11;100.00;94289.38;5113815;28;20431;-52
2022/11/21 06:09:39;;;;;;;0.53;0.50;;;;;;;12.84;100.00;94291.44;5113643;28;20433;-52
2022/11/21 06:12:08;;;;;;;0.60;0.50;;;;;;;12.95;100.00;94298.84;5113551;28;20428;-53
2022/11/21 06:14:36;;;;;;;0.70;0.70;;;;;;;13.25;100.00;94262.66;5113413;28;20992;-52
2022/11/21 06:17:05;;;;;;;0.67;0.60;;;;;;;13.17;100.00;94256.22;5113977;28;20766;-53
2022/11/21 06:19:34;;;;;;;0.50;0.30;;;;;;;13.19;100.00;94251.38;5113975;28;20432;-52
2022/11/21 06:22:02;;;;;;;0.63;0.63;;;;;;;13.24;100.00;94258.41;5113433;28;20433;-52
2022/11/21 06:24:30;;;;;;;0.63;0.63;;;;;;;13.31;100.00;94270.16;5113430;28;20766;-52
2022/11/21 06:26:59;;;;;;;0.50;0.47;;;;;;;13.23;100.00;94272.81;5112905;28;20563;-53
2022/11/21 06:29:27;;;;;;;0.83;0.83;;;;;;;13.36;100.00;94278.00;5112983;28;20442;-52
2022/11/21 06:31:55;;;;;;;1.73;0.80;;;;;;;13.61;100.00;94278.34;5113574;28;20430;-52
2022/11/21 06:34:27;;;;;;;0.57;0.57;;;;;;;13.49;100.00;94273.63;5113133;28;20431;-52
2022/11/21 06:36:56;;;;;;;10.23;3.07;;;;;;;13.44;100.00;94278.31;5113288;28;20429;-53
2022/11/21 06:39:25;;;;;;;2.20;2.00;;;;;;;13.73;100.00;94297.13;5112253;28;21029;-53
2022/11/21 06:41:53;;;;;;;0.80;0.80;;;;;;;13.63;100.00;94297.44;5112175;28;20442;-53
2022/11/21 06:44:22;;;;;;;1.60;0.70;;;;;;;13.94;100.00;94288.19;5112654;28;20421;-53
2022/11/21 06:46:50;;;;;;;0.50;0.50;;;;;;;14.10;100.00;94269.06;5112562;28;20470;-53
2022/11/21 06:49:20;;;;;;;0.80;0.30;;;;;;;13.86;100.00;94233.03;5112941;28;20425;-52
2022/11/21 06:51:51;;;;;;;0.47;0.43;;;;;;;14.40;100.00;94306.19;5113202;28;20429;-52
2022/11/21 06:54:19;;;;;;;7.73;0.77;;;;;;;13.47;100.00;94313.09;5112810;28;20475;-53
2022/11/21 06:56:48;;;;;;;0.50;0.50;;;;;;;13.62;100.00;94301.19;5112971;28;20855;-52
2022/11/21 06:59:16;;;;;;;1.07;0.50;;;;;;;13.54;100.00;94292.09;5112678;28;20437;-53
2022/11/21 07:01:45;;;;;;;0.50;0.50;;;;;;;13.78;100.00;94311.09;5113056;28;20460;-53
2022/11/21 07:04:13;;;;;;;0.93;0.83;;;;;;;14.15;100.00;94320.31;5112314;28;20425;-52
2022/11/21 07:06:42;;;;;;;0.60;0.53;;;;;;;14.12;100.00;94314.81;5112928;28;20848;-52
2022/11/21 07:09:11;;;;;;;1.23;0.80;;;;;;;14.25;100.00;94321.84;5113035;28;20427;-53
2022/11/21 07:13:20;;;;;;;0.50;0.40;;;;;;;14.21;100.00;94320.94;5112499;28;20443;-53
2022/11/21 07:14:47;;;;;;;0.50;0.30;;;;;;;14.08;100.00;94319.22;5112480;28;20466;-53
2022/11/21 07:17:15;;;;;;;1.40;1.30;;;;;;;14.10;100.00;94327.66;5112460;28;20485;-52
2022/11/21 07:19:44;;;;;;;1.77;1.67;;;;;;;13.49;100.00;94328.72;5112400;28;20953;-53
2022/11/21 07:22:12;;;;;;;0.97;0.77;;;;;;;13.31;100.00;94266.72;5112584;28;20422;-53
2022/11/21 07:24:42;;;;;;;0.87;0.83;;;;;;;13.97;100.00;94326.72;5112725;28;20432;-52
2022/11/21 07:27:10;;;;;;;0.90;0.90;;;;;;;13.58;100.00;94330.34;5111898;28;20553;-52
2022/11/21 07:29:38;;;;;;;3.80;2.77;;;;;;;13.81;100.00;94331.75;5112130;28;20436;-53
2022/11/21 07:32:06;;;;;;;0.87;0.87;;;;;;;13.98;100.00;94333.63;5112090;28;20415;-52
2022/11/21 07:34:35;;;;;;;0.67;0.67;;;;;;;14.15;100.00;94338.97;5111911;28;20513;-53
2022/11/21 07:37:03;;;;;;;0.70;0.67;;;;;;;14.15;100.00;94351.50;5112067;28;20499;-53
2022/11/21 07:39:32;;;;;;;6.53;1.40;;;;;;;13.93;100.00;94357.78;5112118;28;20429;-54
2022/11/21 07:42:02;;;;;;;1.07;1.07;;;;;;;14.21;100.00;94352.91;5112412;28;20760;-53
2022/11/21 07:44:30;;;;;;;4.53;3.07;;;;;;;14.24;100.00;94352.28;5112087;28;20438;-54
2022/11/21 07:46:58;;;;;;;0.77;0.77;;;;;;;14.28;100.00;94359.31;5112385;28;20508;-53
2022/11/21 07:49:26;;;;;;;1.47;1.17;;;;;;;14.49;100.00;94362.94;5112247;28;20428;-54
2022/11/21 07:51:55;;;;;;;5.70;0.73;;;;;;;14.12;100.00;94358.22;5111776;28;20450;-53
2022/11/21 07:54:23;;;;;;;1.10;1.07;;;;;;;14.01;100.00;94357.00;5111745;28;20470;-52
2022/11/21 07:56:52;;;;;;;0.60;0.60;;;;;;;14.24;100.00;94354.94;5111850;28;20480;-53
2022/11/21 07:59:21;;;;;;;1.20;1.17;;;;;;;14.41;100.00;94365.63;5111788;28;20555;-53
2022/11/21 08:01:51;;;;;;;0.60;0.57;;;;;;;14.84;100.00;94368.97;5112089;28;20433;-53
2022/11/21 08:04:19;;;;;;;0.57;0.50;;;;;;;15.44;100.00;94359.94;5112025;28;20435;-53
2022/11/21 08:06:47;;;;;;;1.13;1.03;;;;;;;15.36;100.00;94353.53;5112097;28;20790;-53
2022/11/21 08:09:16;;;;;;;0.73;0.73;;;;;;;15.38;100.00;94350.56;5111996;28;20957;-54
2022/11/21 08:11:44;;;;;;;0.57;0.50;;;;;;;15.50;100.00;94354.13;5111615;28;20437;-53
2022/11/21 08:14:13;;;;;;;1.73;1.63;;;;;;;15.65;100.00;94339.44;5112070;28;20426;-54
2022/11/21 08:16:42;;;;;;;3.30;1.27;;;;;;;15.96;99.96;94357.78;5115705;28;21069;-53
2022/11/21 08:19:10;;;;;;;0.80;0.80;;;;;;;15.96;100.00;94350.53;5115826;28;20421;-54
2022/11/21 08:21:39;;;;;;;10.30;1.00;;;;;;;16.53;90.05;94356.06;5116016;28;20814;-55
2022/11/21 08:24:12;;;;;;;0.73;0.73;;;;;;;16.27;88.28;94356.25;5116072;28;20518;-55
2022/11/21 08:26:41;;;;;;;0.60;0.60;;;;;;;15.57;89.02;94306.34;5115237;28;20505;-55
2022/11/21 08:29:09;;;;;;;0.50;0.43;;;;;;;16.48;89.35;94356.22;5115892;27;20423;-55
2022/11/21 08:31:39;;;;;;;0.50;0.40;;;;;;;16.93;83.04;94354.38;5115479;28;20439;-55
2022/11/21 08:34:09;;;;;;;2.90;1.77;;;;;;;17.62;79.75;94357.03;5115311;28;20826;-55
2022/11/21 08:36:41;;;;;;;0.40;0.30;;;;;;;18.46;73.39;94338.38;5115658;28;20543;-55
2022/11/21 08:39:10;;;;;;;0.60;0.40;;;;;;;19.06;73.45;94340.00;5115391;28;20475;-56
2022/11/21 08:44:24;;;;;;;0.63;0.50;;;;;;;19.90;67.59;94335.88;5115621;27;20497;-59
2022/11/21 08:46:52;;;;;;;0.50;0.50;;;;;;;20.04;64.06;94338.84;5115174;28;20520;-58
2022/11/21 08:49:21;;;;;;;0.40;0.30;;;;;;;20.57;58.17;94329.97;5115491;28;20496;-57
2022/11/21 08:51:50;;;;;;;1.53;0.70;;;;;;;21.14;55.25;94326.44;5115374;28;20440;-56
2022/11/21 08:54:20;;;;;;;0.50;0.30;;;;;;;21.93;53.61;94318.44;5115377;28;20466;-56
2022/11/21 08:56:48;;;;;;;1.43;1.33;;;;;;;22.01;51.56;94310.06;5114971;27;20978;-55
2022/11/21 08:59:17;;;;;;;0.40;0.30;;;;;;;22.36;47.99;94304.38;5115120;28;20912;-54
2022/11/21 09:01:45;;;;;;;0.40;0.30;;;;;;;23.36;47.03;94291.53;5115055;28;20464;-54
2022/11/21 09:04:14;;;;;;;0.40;0.27;;;;;;;23.84;46.98;94313.91;5115317;28;20419;-54
2022/11/21 09:06:44;;;;;;;0.50;0.30;;;;;;;23.14;45.68;94316.03;5114711;28;20515;-54
2022/11/21 09:09:12;;;;;;;2.40;0.47;;;;;;;22.70;46.53;94310.56;5115122;28;20446;-54
2022/11/21 09:11:40;;;;;;;0.40;0.40;;;;;;;23.09;46.10;94313.66;5114844;28;20432;-54
2022/11/21 09:19:41;;;;;;;0.93;0.50;;;;;;;24.71;45.99;94298.47;5115030;28;20428;-53
2022/11/21 09:22:10;;;;;;;0.40;0.30;;;;;;;24.01;47.66;94294.28;5114916;28;20424;-53
2022/11/21 09:24:39;;;;;;;0.40;0.30;;;;;;;24.16;48.48;94294.41;5114808;28;20434;-55
2022/11/21 09:27:07;;;;;;;1.37;0.30;;;;;;;24.66;45.31;94274.47;5113711;28;20551;-53
2022/11/21 09:29:35;;;;;;;0.40;0.20;;;;;;;23.21;47.17;94286.34;5114386;28;20436;-52
2022/11/21 09:32:04;;;;;;;0.47;0.27;;;;;;;22.98;46.35;94267.59;5114406;28;20510;-54
2022/11/21 09:34:32;;;;;;;0.40;0.20;;;;;;;22.48;46.37;94290.63;5114679;28;20420;-55
2022/11/21 09:37:00;;;;;;;0.40;0.23;;;;;;;22.24;45.94;94293.78;5114589;28;20472;-54
2022/11/21 09:39:30;;;;;;;0.50;0.30;;;;;;;22.34;46.21;94301.25;5114586;28;20419;-54
2022/11/21 09:42:14;;;;;;;0.40;0.20;;;;;;;21.36;48.16;94300.63;5114337;28;20515;-56
2022/11/21 09:45:15;;;;;;;0.40;0.20;;;;;;;20.68;50.62;94297.88;5114493;28;20456;-56
2022/11/21 09:47:45;;;;;;;0.40;0.20;;;;;;;20.75;52.80;94301.47;5051513;28;20809;-57
2022/11/21 09:50:29;;;;;;;0.77;0.77;;;;;;;20.94;51.43;94297.97;5102620;27;20972;-57
2022/11/21 09:53:01;;;;;;;2.50;0.40;;;;;;;21.15;55.39;94287.56;5114507;28;20416;-57
2022/11/21 09:55:41;;;;;;;0.40;0.20;;;;;;;20.85;51.88;94300.88;5114374;28;20430;-56
2022/11/21 09:58:20;;;;;;;0.60;0.43;;;;;;;20.48;52.10;94293.66;5114020;27;20463;-56
2022/11/21 10:00:51;;;;;;;1.27;0.40;;;;;;;20.24;52.25;94287.44;5114058;27;20534;-56
2022/11/21 10:03:24;;;;;;;1.00;0.43;;;;;;;20.11;53.11;94285.97;5114114;28;20453;-55
2022/11/21 10:05:56;;;;;;;0.40;0.30;;;;;;;19.69;53.78;94217.88;5113598;28;20495;-55
2022/11/21 10:08:34;;;;;;;0.40;0.20;;;;;;;20.33;52.50;94278.38;5113550;28;20901;-55
2022/11/21 10:11:16;;;;;;;0.50;0.50;;;;;;;20.60;51.68;94283.50;5113880;28;20475;-55
2022/11/21 10:13:57;;;;;;;0.40;0.30;;;;;;;20.25;51.86;94278.25;5113981;28;20432;-56
2022/11/21 10:16:34;;;;;;;0.70;0.40;;;;;;;19.90;53.31;94277.50;5113682;28;20434;-53
2022/11/21 10:19:21;;;;;;;0.40;0.30;;;;;;;19.91;51.54;94276.34;5113378;28;20535;-54
2022/11/21 10:22:08;;;;;;;0.40;0.30;;;;;;;20.14;53.35;94273.75;5113398;28;20928;-54
2022/11/21 10:24:49;;;;;;;0.40;0.20;;;;;;;20.32;49.91;94272.22;5113399;28;20445;-55
2022/11/21 10:27:27;;;;;;;0.40;0.30;;;;;;;19.55;50.78;94258.69;5113229;28;21098;-56
2022/11/21 10:30:00;;;;;;;0.50;0.40;;;;;;;19.74;52.76;94271.38;5113643;28;20840;-55
2022/11/21 10:32:33;;;;;;;0.43;0.37;;;;;;;19.13;52.07;94264.97;5113280;28;20421;-55
2022/11/21 10:35:12;;;;;;;0.40;0.27;;;;;;;18.71;53.18;94265.50;5113487;27;20424;-55
2022/11/21 10:37:47;;;;;;;0.40;0.27;;;;;;;18.56;53.38;94257.41;5113254;28;20479;-55
2022/11/21 10:40:23;;;;;;;0.50;0.30;;;;;;;18.89;51.46;94264.03;5113387;28;20423;-55
2022/11/21 10:42:57;;;;;;;0.40;0.20;;;;;;;19.15;52.18;94268.09;5113359;28;20523;-56
2022/11/21 10:45:24;;;;;;;0.40;0.20;;;;;;;19.02;52.07;94268.16;5113061;28;20456;-56
2022/11/21 10:47:53;;;;;;;0.40;0.20;;;;;;;18.30;52.04;94272.06;5112838;28;20442;-57
2022/11/21 10:50:50;;;;;;;0.87;0.87;;;;;;;17.93;54.90;94237.69;5113308;28;20420;-56
2022/11/21 10:56:11;;;;;;;0.50;0.37;;;;;;;17.80;59.85;94260.28;5113152;28;20436;-56
2022/11/21 10:58:46;;;;;;;0.60;0.40;;;;;;;17.73;55.64;94209.97;5112889;28;20474;-55
2022/11/21 11:01:24;;;;;;;0.50;0.30;;;;;;;18.09;56.16;94257.31;5112602;28;20427;-55
2022/11/21 11:04:17;;;;;;;0.40;0.30;;;;;;;18.44;58.39;94250.19;5112790;28;20480;-56
2022/11/21 11:07:21;;;;;;;0.40;0.20;;;;;;;18.67;56.60;94245.81;5112369;28;20431;-55
2022/11/21 11:09:51;;;;;;;0.60;0.50;;;;;;;18.70;52.08;94245.13;5112852;28;20432;-56
2022/11/21 11:15:20;;;;;;;0.40;0.20;;;;;;;19.66;51.96;94250.09;5112184;28;20435;-55
2022/11/21 11:17:55;;;;;;;0.40;0.30;;;;;;;19.56;53.26;94243.31;5112515;28;20481;-56
2022/11/21 11:20:33;;;;;;;0.83;0.83;;;;;;;19.26;52.30;94251.09;5112294;28;20471;-56
2022/11/21 11:23:16;;;;;;;0.50;0.50;;;;;;;18.94;53.63;94253.03;5112511;28;20506;-56
2022/11/21 11:25:49;;;;;;;0.40;0.20;;;;;;;18.87;53.62;94238.66;5112279;28;21012;-56
2022/11/21 11:28:18;;;;;;;0.40;0.20;;;;;;;18.77;54.13;94248.00;5112145;28;20987;-56
2022/11/21 11:30:50;;;;;;;0.40;0.20;;;;;;;18.42;53.01;94250.53;5112532;28;20424;-56
2022/11/21 11:33:33;;;;;;;0.40;0.20;;;;;;;18.25;52.98;94239.34;5112495;28;20435;-56
2022/11/21 11:36:14;;;;;;;1.33;0.30;;;;;;;18.09;51.91;94247.34;5112149;28;20450;-56
2022/11/21 11:38:52;;;;;;;0.47;0.33;;;;;;;18.49;51.07;94258.03;5111989;28;20464;-55
2022/11/21 11:47:30;;;;;;;0.40;0.20;;;;;;;20.15;50.54;94251.88;5111793;28;20445;-55
2022/11/21 11:50:11;;;;;;;0.40;0.30;;;;;;;19.99;49.52;94242.31;5113571;28;20945;-55
2022/11/21 11:52:48;;;;;;;0.40;0.30;;;;;;;19.65;51.32;94233.19;5118862;27;20518;-55
2022/11/21 11:55:21;;;;;;;0.40;0.20;;;;;;;20.31;51.78;94246.44;5118777;27;21061;-55
2022/11/21 11:57:54;;;;;;;0.40;0.20;;;;;;;20.05;51.60;94219.38;5119172;27;20497;-56
2022/11/21 12:00:39;;;;;;;0.40;0.20;;;;;;;20.84;52.12;94242.78;5118838;27;20432;-56
2022/11/21 12:03:15;;;;;;;0.40;0.20;;;;;;;20.92;52.15;94242.91;5119010;27;20422;-57
2022/11/21 12:05:55;;;;;;;0.40;0.30;;;;;;;20.53;49.93;94236.84;5118800;27;20431;-56
2022/11/21 12:08:29;;;;;;;0.53;0.53;;;;;;;19.87;49.02;94251.31;5118960;27;20430;-56
2022/11/21 12:15:47;;;;;;;0.40;0.20;;;;;;;20.32;51.63;94239.91;5118380;27;20423;-54
2022/11/21 12:17:06;;;;;;;1.13;0.30;;;;;;;20.21;50.37;94247.75;5118089;27;20428;-54